Ze Doca, Brazil
Current Conditions -  °F | °C
As of 1:00 AM on Saturday 25 Oct 2014 (Local Time) from SBSL Reporting Station
Few Clouds Few Clouds  
Wind Chill: 81°   Ceiling: Unl
Heat Index: 84°   Visibility: 6mi
Dew Point: 70°   Wind: 13mph
Humidity: 70%   Direction: 60°ENE
Pressure: 29.8"   Gusts: NA
Location:  3.27°S, 45.66°W
Report Text: SBSL 250400Z 06011KT 9999 FEW017 27/21 Q1009
Loading
Personal Weather Stations






























Interactive Weather Map
Tropical Storm Tracking
New forecast layout! Learn more

10-Day Weather Forecast

Advertisements
Track Severe Weather on mobile